Time;durP1;ratioP1;P1;durP2;ratioP2;P2;SDS_P1;SDS_P2;PMS_P1;PMS_P2;Temp;Humidity;BMP_temperature;BMP_pressure;BME280_temperature;BME280_humidity;BME280_pressure;Samples;Min_cycle;Max_cycle;Signal;HPM_P1;HPM_P2
2022/08/21 00:01:53;;;;;;;5.45;3.40;;;;;;;;;;4981996;28;20026;-77
2022/08/21 00:04:20;;;;;;;7.60;4.10;;;;;;;;;;4998513;28;20379;-76
2022/08/21 00:06:46;;;;;;;7.40;3.60;;;;;;;;;;4999361;28;20029;-75
2022/08/21 00:09:12;;;;;;;7.53;3.60;;;;;;;;;;4999634;28;20030;-76
2022/08/21 00:11:39;;;;;;;9.55;4.05;;;;;;;;;;4997605;28;20030;-75
2022/08/21 00:14:06;;;;;;;5.88;3.40;;;;;;;;;;4998735;28;20073;-76
2022/08/21 00:16:33;;;;;;;9.20;3.70;;;;;;;;;;4998711;28;20030;-75
2022/08/21 00:18:59;;;;;;;8.05;3.78;;;;;;;;;;4997789;28;20049;-76
2022/08/21 00:21:25;;;;;;;8.50;3.75;;;;;;;;;;4948780;28;1380827;-76
2022/08/21 00:23:52;;;;;;;8.60;3.45;;;;;;;;;;4998287;28;20030;-76
2022/08/21 00:26:18;;;;;;;6.75;3.60;;;;;;;;;;4993970;28;20034;-76
2022/08/21 00:28:45;;;;;;;8.63;3.53;;;;;;;;;;4998598;28;20034;-75
2022/08/21 00:31:12;;;;;;;8.70;3.38;;;;;;;;;;4997733;28;20113;-76
2022/08/21 00:33:38;;;;;;;8.77;3.58;;;;;;;;;;4995618;28;20070;-75
2022/08/21 00:36:04;;;;;;;9.38;3.78;;;;;;;;;;4996881;28;20113;-75
2022/08/21 00:38:30;;;;;;;10.27;3.45;;;;;;;;;;4995742;28;20157;-76
2022/08/21 00:40:59;;;;;;;9.02;3.63;;;;;;;;;;4999015;28;20022;-75
2022/08/21 00:43:27;;;;;;;8.75;3.97;;;;;;;;;;4979998;28;20113;-76
2022/08/21 00:45:53;;;;;;;8.30;3.63;;;;;;;;;;4998859;28;20030;-76
2022/08/21 00:48:20;;;;;;;11.70;3.80;;;;;;;;;;4996771;28;20022;-76
2022/08/21 00:51:06;;;;;;;9.73;3.65;;;;;;;;;;4996913;28;20100;-76
2022/08/21 00:53:33;;;;;;;10.70;3.55;;;;;;;;;;4996506;28;20034;-76
2022/08/21 00:56:02;;;;;;;11.27;3.72;;;;;;;;;;4998344;28;20112;-75
2022/08/21 00:58:30;;;;;;;7.60;3.10;;;;;;;;;;4981222;28;20029;-75
2022/08/21 01:00:57;;;;;;;8.85;3.60;;;;;;;;;;4996416;28;20041;-75
2022/08/21 01:03:25;;;;;;;9.80;3.78;;;;;;;;;;4980965;28;20490;-75
2022/08/21 01:05:52;;;;;;;8.50;3.72;;;;;;;;;;4993274;28;20042;-75
2022/08/21 01:08:19;;;;;;;8.57;3.83;;;;;;;;;;4999134;28;20105;-75
2022/08/21 01:10:46;;;;;;;9.05;3.65;;;;;;;;;;4999578;28;20056;-76
2022/08/21 01:13:14;;;;;;;8.40;2.92;;;;;;;;;;4993959;28;20053;-75
2022/08/21 01:15:42;;;;;;;7.60;3.05;;;;;;;;;;4997766;28;20018;-76
2022/08/21 01:18:10;;;;;;;10.43;3.63;;;;;;;;;;4995768;28;20026;-75
2022/08/21 01:20:37;;;;;;;8.38;3.30;;;;;;;;;;4998120;28;20038;-76
2022/08/21 01:23:05;;;;;;;6.07;3.28;;;;;;;;;;4995546;28;20117;-75
2022/08/21 01:25:31;;;;;;;9.90;3.85;;;;;;;;;;5002118;28;20177;-76
2022/08/21 01:28:00;;;;;;;10.23;3.00;;;;;;;;;;5002054;28;20112;-76
2022/08/21 01:30:27;;;;;;;8.02;3.45;;;;;;;;;;4999915;28;20422;-75
2022/08/21 01:32:54;;;;;;;9.13;3.88;;;;;;;;;;5001504;28;20098;-75
2022/08/21 01:35:21;;;;;;;12.20;3.40;;;;;;;;;;5002859;28;20021;-76
2022/08/21 01:37:47;;;;;;;11.82;3.42;;;;;;;;;;4999838;28;20109;-75
2022/08/21 01:40:15;;;;;;;14.05;3.35;;;;;;;;;;5002252;28;20029;-75
2022/08/21 01:42:42;;;;;;;12.10;3.38;;;;;;;;;;5000870;28;20112;-75
2022/08/21 01:45:09;;;;;;;9.73;3.65;;;;;;;;;;4999540;28;20018;-75
2022/08/21 01:47:35;;;;;;;8.13;2.85;;;;;;;;;;5001967;28;20034;-75
2022/08/21 01:50:01;;;;;;;10.15;3.00;;;;;;;;;;5000051;28;20501;-75
2022/08/21 01:52:29;;;;;;;9.13;2.72;;;;;;;;;;5001838;28;20176;-75
2022/08/21 01:54:55;;;;;;;6.20;2.33;;;;;;;;;;4995749;28;20084;-74
2022/08/21 01:57:21;;;;;;;13.77;3.00;;;;;;;;;;4996956;28;20113;-75
2022/08/21 01:59:48;;;;;;;6.05;2.88;;;;;;;;;;5000996;28;20026;-75
2022/08/21 02:02:14;;;;;;;9.07;3.17;;;;;;;;;;5001991;28;20041;-76
2022/08/21 02:04:40;;;;;;;8.77;2.67;;;;;;;;;;5002505;28;20590;-76
2022/08/21 02:07:06;;;;;;;8.50;2.33;;;;;;;;;;4999182;28;20084;-75
2022/08/21 02:09:33;;;;;;;7.90;2.58;;;;;;;;;;5002845;28;20061;-76
2022/08/21 02:11:59;;;;;;;7.25;2.72;;;;;;;;;;5003104;28;20023;-76
2022/08/21 02:14:26;;;;;;;9.73;3.13;;;;;;;;;;4998122;28;20034;-76
2022/08/21 02:16:52;;;;;;;7.40;2.53;;;;;;;;;;5001049;28;20029;-76
2022/08/21 02:19:19;;;;;;;8.00;2.50;;;;;;;;;;4997261;28;20050;-75
2022/08/21 02:21:45;;;;;;;10.98;3.42;;;;;;;;;;4999162;28;20026;-75
2022/08/21 02:24:12;;;;;;;8.75;2.40;;;;;;;;;;4997765;28;20014;-75
2022/08/21 02:26:38;;;;;;;6.60;2.50;;;;;;;;;;5001755;28;20036;-74
2022/08/21 02:29:05;;;;;;;9.73;2.90;;;;;;;;;;4980093;28;20544;-78
2022/08/21 02:31:31;;;;;;;12.45;3.15;;;;;;;;;;4994475;28;20108;-74
2022/08/21 02:33:57;;;;;;;9.93;2.92;;;;;;;;;;5000719;28;20554;-78
2022/08/21 02:36:23;;;;;;;8.60;3.00;;;;;;;;;;4976893;28;20037;-75
2022/08/21 02:38:49;;;;;;;7.68;2.75;;;;;;;;;;4991028;28;20072;-74
2022/08/21 02:41:18;;;;;;;8.80;2.75;;;;;;;;;;4991145;28;20033;-76
2022/08/21 02:43:44;;;;;;;11.57;2.63;;;;;;;;;;4994829;28;20443;-75
2022/08/21 02:46:12;;;;;;;7.40;3.08;;;;;;;;;;4979410;28;20048;-75
2022/08/21 02:48:38;;;;;;;9.05;2.80;;;;;;;;;;4999579;28;20036;-75
2022/08/21 02:51:09;;;;;;;8.77;2.72;;;;;;;;;;4998592;28;20030;-74
2022/08/21 02:53:36;;;;;;;11.43;2.72;;;;;;;;;;4998350;28;20113;-75
2022/08/21 02:56:04;;;;;;;8.95;3.00;;;;;;;;;;4998472;28;20630;-75
2022/08/21 02:58:32;;;;;;;9.50;2.53;;;;;;;;;;4999837;28;20033;-74
2022/08/21 03:00:59;;;;;;;6.57;2.70;;;;;;;;;;4996099;28;20018;-75
2022/08/21 03:03:26;;;;;;;7.82;2.88;;;;;;;;;;4982420;28;20254;-76
2022/08/21 03:05:53;;;;;;;10.73;3.08;;;;;;;;;;4999241;28;20798;-75
2022/08/21 03:08:20;;;;;;;8.60;2.90;;;;;;;;;;4997200;28;20037;-76
2022/08/21 03:10:47;;;;;;;7.70;2.85;;;;;;;;;;4997066;28;20549;-74
2022/08/21 03:13:14;;;;;;;9.98;3.33;;;;;;;;;;4997278;28;20106;-76
2022/08/21 03:15:41;;;;;;;9.75;2.90;;;;;;;;;;4998727;28;20034;-75
2022/08/21 03:18:08;;;;;;;10.18;3.28;;;;;;;;;;4992482;28;20030;-76
2022/08/21 03:20:35;;;;;;;6.10;2.60;;;;;;;;;;4993946;28;20137;-76
2022/08/21 03:23:03;;;;;;;7.95;3.13;;;;;;;;;;4995317;28;20045;-75
2022/08/21 03:25:31;;;;;;;8.82;2.70;;;;;;;;;;4994692;28;20040;-75
2022/08/21 03:27:58;;;;;;;5.78;2.50;;;;;;;;;;4997074;28;20097;-75
2022/08/21 03:30:24;;;;;;;9.18;2.50;;;;;;;;;;4997656;28;20022;-76
2022/08/21 03:32:50;;;;;;;9.23;2.72;;;;;;;;;;4993002;28;20522;-76
2022/08/21 03:35:17;;;;;;;9.45;3.03;;;;;;;;;;4994858;28;20835;-75
2022/08/21 03:37:44;;;;;;;4.72;2.45;;;;;;;;;;4991467;28;20050;-74
2022/08/21 03:40:11;;;;;;;8.32;2.80;;;;;;;;;;4992218;28;20546;-75
2022/08/21 03:42:37;;;;;;;9.27;2.97;;;;;;;;;;4991582;28;20416;-75
2022/08/21 03:45:05;;;;;;;10.05;3.03;;;;;;;;;;4994363;28;20108;-76
2022/08/21 03:47:31;;;;;;;6.28;2.63;;;;;;;;;;4988019;28;20509;-78
2022/08/21 03:49:57;;;;;;;10.70;3.13;;;;;;;;;;4991489;28;20037;-75
2022/08/21 03:52:23;;;;;;;8.15;2.83;;;;;;;;;;4990380;28;20084;-75
2022/08/21 03:54:50;;;;;;;9.02;2.78;;;;;;;;;;4991176;28;20038;-77
2022/08/21 03:57:16;;;;;;;8.93;3.42;;;;;;;;;;4992535;28;20021;-75
2022/08/21 03:59:43;;;;;;;6.35;2.70;;;;;;;;;;4988147;28;20030;-75
2022/08/21 04:02:10;;;;;;;7.82;3.20;;;;;;;;;;4989830;28;20471;-75
2022/08/21 04:04:36;;;;;;;6.05;2.55;;;;;;;;;;4989866;28;20121;-76
2022/08/21 04:07:03;;;;;;;10.07;3.28;;;;;;;;;;4991233;28;20041;-75
2022/08/21 04:09:30;;;;;;;5.47;2.53;;;;;;;;;;4987956;28;20113;-76
2022/08/21 04:11:56;;;;;;;4.95;2.60;;;;;;;;;;4991367;28;20113;-76
2022/08/21 04:14:23;;;;;;;9.35;2.97;;;;;;;;;;4990028;28;20030;-75
2022/08/21 04:16:49;;;;;;;8.93;2.70;;;;;;;;;;4986628;28;20172;-74
2022/08/21 04:19:15;;;;;;;9.23;2.75;;;;;;;;;;4989917;28;20025;-75
2022/08/21 04:21:42;;;;;;;12.55;3.42;;;;;;;;;;4989020;28;20039;-75
2022/08/21 04:24:10;;;;;;;6.18;2.25;;;;;;;;;;4992150;28;20053;-75
2022/08/21 04:26:37;;;;;;;10.13;2.75;;;;;;;;;;4986465;28;20042;-75
2022/08/21 04:29:06;;;;;;;8.98;2.90;;;;;;;;;;4990018;28;20497;-76
2022/08/21 04:31:33;;;;;;;8.25;2.60;;;;;;;;;;4976410;28;20033;-76
2022/08/21 04:33:59;;;;;;;7.18;2.80;;;;;;;;;;4992972;28;20618;-76
2022/08/21 04:36:25;;;;;;;8.25;3.20;;;;;;;;;;4994652;28;20022;-76
2022/08/21 04:38:52;;;;;;;5.22;2.28;;;;;;;;;;4996324;28;20576;-76
2022/08/21 04:41:18;;;;;;;6.53;2.75;;;;;;;;;;4982223;28;20031;-77
2022/08/21 04:43:44;;;;;;;10.75;2.95;;;;;;;;;;4997306;28;20034;-76
2022/08/21 04:46:10;;;;;;;6.70;2.47;;;;;;;;;;4993731;28;20042;-76
2022/08/21 04:48:36;;;;;;;8.23;2.90;;;;;;;;;;4979376;28;20050;-76
2022/08/21 04:51:06;;;;;;;6.75;2.88;;;;;;;;;;4995045;28;20032;-76
2022/08/21 04:53:34;;;;;;;6.50;2.25;;;;;;;;;;4983193;28;20088;-76
2022/08/21 04:56:04;;;;;;;7.60;2.65;;;;;;;;;;4987127;28;20027;-76
2022/08/21 04:58:32;;;;;;;7.95;2.80;;;;;;;;;;4990016;28;20032;-76
2022/08/21 05:00:59;;;;;;;18.27;3.10;;;;;;;;;;4991784;28;20522;-76
2022/08/21 05:03:25;;;;;;;8.90;3.15;;;;;;;;;;4988708;28;20037;-76
2022/08/21 05:05:52;;;;;;;11.65;3.25;;;;;;;;;;4988360;28;20129;-76
2022/08/21 05:08:19;;;;;;;15.07;2.95;;;;;;;;;;4988775;28;20034;-76
2022/08/21 05:10:46;;;;;;;8.02;3.33;;;;;;;;;;4991145;28;20045;-76
2022/08/21 05:13:13;;;;;;;10.20;3.45;;;;;;;;;;4986395;28;20042;-76
2022/08/21 05:15:40;;;;;;;12.98;2.85;;;;;;;;;;4990299;28;20026;-76
2022/08/21 05:18:06;;;;;;;10.43;3.03;;;;;;;;;;4987967;28;20499;-77
2022/08/21 05:20:34;;;;;;;10.05;2.80;;;;;;;;;;4989422;28;20408;-75
2022/08/21 05:23:00;;;;;;;6.28;2.72;;;;;;;;;;4987218;28;20330;-76
2022/08/21 05:25:27;;;;;;;8.50;3.05;;;;;;;;;;4989993;28;20113;-75
2022/08/21 05:27:53;;;;;;;7.70;2.90;;;;;;;;;;4989225;28;20022;-76
2022/08/21 05:30:21;;;;;;;9.57;3.17;;;;;;;;;;4987639;28;20025;-76
2022/08/21 05:32:47;;;;;;;9.77;2.50;;;;;;;;;;4993216;28;20029;-76
2022/08/21 05:35:13;;;;;;;7.72;2.90;;;;;;;;;;4994582;28;20041;-75
2022/08/21 05:37:40;;;;;;;7.38;2.88;;;;;;;;;;4993567;28;20042;-75
2022/08/21 05:40:07;;;;;;;6.45;2.50;;;;;;;;;;4995164;28;20026;-75
2022/08/21 05:42:34;;;;;;;8.27;2.72;;;;;;;;;;4992973;28;20030;-75
2022/08/21 05:45:00;;;;;;;6.95;2.58;;;;;;;;;;4996224;28;20029;-76
2022/08/21 05:47:26;;;;;;;8.55;2.88;;;;;;;;;;4988237;28;20042;-75
2022/08/21 05:49:53;;;;;;;8.50;2.60;;;;;;;;;;4985585;28;20038;-76
2022/08/21 05:52:20;;;;;;;8.13;3.00;;;;;;;;;;4998184;28;20039;-75
2022/08/21 05:54:46;;;;;;;9.13;2.78;;;;;;;;;;4978500;28;20022;-76
2022/08/21 05:57:12;;;;;;;4.90;2.38;;;;;;;;;;4994692;28;20026;-77
2022/08/21 05:59:39;;;;;;;5.93;2.38;;;;;;;;;;4996491;28;20026;-76
2022/08/21 06:02:07;;;;;;;11.55;2.72;;;;;;;;;;4992375;28;20026;-76
2022/08/21 06:04:37;;;;;;;6.47;2.30;;;;;;;;;;4993556;28;20022;-76
2022/08/21 06:07:04;;;;;;;6.90;2.70;;;;;;;;;;4993214;28;20599;-76
2022/08/21 06:09:30;;;;;;;6.68;2.22;;;;;;;;;;4992610;28;20084;-76
2022/08/21 06:11:56;;;;;;;7.40;2.35;;;;;;;;;;4990470;28;20029;-77
2022/08/21 06:14:22;;;;;;;5.53;2.20;;;;;;;;;;4993970;28;20546;-77
2022/08/21 06:16:49;;;;;;;7.00;2.53;;;;;;;;;;4991328;28;20017;-76
2022/08/21 06:19:15;;;;;;;6.95;2.47;;;;;;;;;;4994766;28;20032;-76
2022/08/21 06:21:41;;;;;;;5.60;1.98;;;;;;;;;;4996940;28;20087;-76
2022/08/21 06:24:07;;;;;;;7.72;2.55;;;;;;;;;;4992939;28;20034;-76
2022/08/21 06:26:34;;;;;;;7.57;2.65;;;;;;;;;;4995013;28;20084;-77
2022/08/21 06:29:00;;;;;;;10.20;2.80;;;;;;;;;;4994909;28;20031;-76
2022/08/21 06:31:27;;;;;;;6.20;2.30;;;;;;;;;;4995612;28;20453;-76
2022/08/21 06:33:54;;;;;;;9.68;2.22;;;;;;;;;;4991984;28;20025;-76
2022/08/21 06:36:20;;;;;;;10.95;2.75;;;;;;;;;;4994014;28;20490;-76
2022/08/21 06:38:47;;;;;;;6.00;2.47;;;;;;;;;;4989019;28;20026;-76
2022/08/21 06:41:13;;;;;;;10.52;2.70;;;;;;;;;;4988044;28;20394;-76
2022/08/21 06:43:39;;;;;;;11.68;2.95;;;;;;;;;;4995439;28;20600;-76
2022/08/21 06:46:06;;;;;;;7.70;2.90;;;;;;;;;;4988616;28;20542;-76
2022/08/21 06:48:33;;;;;;;7.65;2.38;;;;;;;;;;4990428;28;20063;-76
2022/08/21 06:51:00;;;;;;;6.40;2.25;;;;;;;;;;4987586;28;20423;-76
2022/08/21 06:53:27;;;;;;;8.27;2.63;;;;;;;;;;4988681;28;20028;-76
2022/08/21 06:55:53;;;;;;;7.55;2.85;;;;;;;;;;4986431;28;20031;-76
2022/08/21 06:58:19;;;;;;;13.20;3.33;;;;;;;;;;4993395;28;20192;-76
2022/08/21 07:00:47;;;;;;;10.85;2.58;;;;;;;;;;4990531;28;20058;-76
2022/08/21 07:03:20;;;;;;;7.53;2.28;;;;;;;;;;4993835;28;20045;-76
2022/08/21 07:05:47;;;;;;;6.65;2.63;;;;;;;;;;4995923;28;20125;-77
2022/08/21 07:08:13;;;;;;;9.55;2.67;;;;;;;;;;4997063;28;20141;-76
2022/08/21 07:10:39;;;;;;;8.68;2.45;;;;;;;;;;4994252;28;20526;-77
2022/08/21 07:13:05;;;;;;;12.57;2.63;;;;;;;;;;4994235;28;20109;-77
2022/08/21 07:15:32;;;;;;;7.97;2.55;;;;;;;;;;4995892;28;20092;-76
2022/08/21 07:17:59;;;;;;;9.93;2.83;;;;;;;;;;4994375;28;20108;-77
2022/08/21 07:20:26;;;;;;;6.97;2.88;;;;;;;;;;4993796;28;20823;-76
2022/08/21 07:22:52;;;;;;;11.60;2.92;;;;;;;;;;4996572;28;20034;-76
2022/08/21 07:25:18;;;;;;;11.27;2.70;;;;;;;;;;5000480;28;20704;-77
2022/08/21 07:27:45;;;;;;;5.55;2.67;;;;;;;;;;4999222;28;20045;-76
2022/08/21 07:30:11;;;;;;;7.93;2.88;;;;;;;;;;5000963;28;20044;-76
2022/08/21 07:32:37;;;;;;;8.43;2.85;;;;;;;;;;4999624;28;20579;-76
2022/08/21 07:35:04;;;;;;;9.18;3.03;;;;;;;;;;4997535;28;20029;-76
2022/08/21 07:37:30;;;;;;;12.40;3.30;;;;;;;;;;4994486;28;20683;-76
2022/08/21 07:39:56;;;;;;;7.93;2.45;;;;;;;;;;4979818;28;20034;-76
2022/08/21 07:42:23;;;;;;;9.02;3.00;;;;;;;;;;5000229;28;20026;-76
2022/08/21 07:44:49;;;;;;;9.57;2.95;;;;;;;;;;4996561;28;20045;-76
2022/08/21 07:47:15;;;;;;;9.85;2.70;;;;;;;;;;4996421;28;20095;-76
2022/08/21 07:49:41;;;;;;;7.55;2.60;;;;;;;;;;4998651;28;20463;-76
2022/08/21 07:52:07;;;;;;;11.70;3.30;;;;;;;;;;4998857;28;20124;-76
2022/08/21 07:54:34;;;;;;;8.35;3.03;;;;;;;;;;4999323;28;20053;-76
2022/08/21 07:57:00;;;;;;;9.05;2.97;;;;;;;;;;4995616;28;20053;-76
2022/08/21 07:59:26;;;;;;;5.40;2.47;;;;;;;;;;4998597;28;20065;-78
2022/08/21 08:01:53;;;;;;;8.45;2.78;;;;;;;;;;4995176;28;20092;-77
2022/08/21 08:04:19;;;;;;;10.13;3.00;;;;;;;;;;4983875;28;20105;-76
2022/08/21 08:06:45;;;;;;;7.35;3.08;;;;;;;;;;4994986;28;20085;-76
2022/08/21 08:09:11;;;;;;;8.73;3.20;;;;;;;;;;4999330;28;20029;-77
2022/08/21 08:11:39;;;;;;;7.78;3.00;;;;;;;;;;4982062;28;20034;-77
2022/08/21 08:14:06;;;;;;;10.65;3.35;;;;;;;;;;4999990;28;20018;-76
2022/08/21 08:16:32;;;;;;;10.88;3.00;;;;;;;;;;4997341;28;20467;-76
2022/08/21 08:18:58;;;;;;;7.30;3.25;;;;;;;;;;4997062;28;20054;-76
2022/08/21 08:21:24;;;;;;;9.85;3.40;;;;;;;;;;4999306;28;20042;-75
2022/08/21 08:23:51;;;;;;;7.25;2.60;;;;;;;;;;4996475;28;20586;-76
2022/08/21 08:26:18;;;;;;;6.57;3.00;;;;;;;;;;5000548;28;20037;-80
2022/08/21 08:28:45;;;;;;;7.20;2.92;;;;;;;;;;4994778;28;20022;-77
2022/08/21 08:31:12;;;;;;;8.82;2.70;;;;;;;;;;4995559;28;20026;-80
2022/08/21 08:33:38;;;;;;;11.80;3.30;;;;;;;;;;4980483;28;20129;-79
2022/08/21 08:36:04;;;;;;;8.43;3.10;;;;;;;;;;4995773;28;20034;-79
2022/08/21 08:38:30;;;;;;;10.05;3.20;;;;;;;;;;4996785;28;20064;-77
2022/08/21 08:41:03;;;;;;;9.98;3.20;;;;;;;;;;4994782;28;20021;-78
2022/08/21 08:43:30;;;;;;;8.15;3.05;;;;;;;;;;4997313;28;20045;-79
2022/08/21 08:45:58;;;;;;;7.95;3.17;;;;;;;;;;4999355;28;20018;-78
2022/08/21 08:48:46;;;;;;;6.45;3.08;;;;;;;;;;4994965;28;20499;-78
2022/08/21 08:51:19;;;;;;;7.38;2.95;;;;;;;;;;4986959;28;20120;-77
2022/08/21 08:53:51;;;;;;;9.38;3.28;;;;;;;;;;4995699;28;20018;-78
2022/08/21 08:56:19;;;;;;;11.77;4.10;;;;;;;;;;4998548;28;20022;-78
2022/08/21 08:58:45;;;;;;;5.93;2.88;;;;;;;;;;4995634;28;20335;-79
2022/08/21 09:01:21;;;;;;;9.20;4.05;;;;;;;;;;4996826;28;20054;-77
2022/08/21 09:03:49;;;;;;;6.50;3.00;;;;;;;;;;4996207;28;20021;-78
2022/08/21 09:06:25;;;;;;;9.98;3.33;;;;;;;;;;4999786;28;20029;-78
2022/08/21 09:09:11;;;;;;;5.80;3.17;;;;;;;;;;4996575;28;20050;-79
2022/08/21 09:11:40;;;;;;;6.97;3.28;;;;;;;;;;4994435;28;20021;-79
2022/08/21 09:14:13;;;;;;;9.52;3.53;;;;;;;;;;4995698;28;20057;-79
2022/08/21 09:16:58;;;;;;;7.60;3.13;;;;;;;;;;4988138;28;20064;-82
2022/08/21 09:19:32;;;;;;;9.27;3.58;;;;;;;;;;4995083;28;20101;-79
2022/08/21 09:22:10;;;;;;;7.50;3.13;;;;;;;;;;4997686;28;20060;-80
2022/08/21 09:24:38;;;;;;;4.80;3.20;;;;;;;;;;4997420;28;20081;-77
2022/08/21 09:27:08;;;;;;;7.15;3.13;;;;;;;;;;4994832;28;20382;-78
2022/08/21 09:29:36;;;;;;;7.43;3.03;;;;;;;;;;4996883;28;20021;-79
2022/08/21 09:32:04;;;;;;;8.20;3.22;;;;;;;;;;4992350;28;20041;-79
2022/08/21 09:34:32;;;;;;;5.15;2.97;;;;;;;;;;4995646;28;20018;-77
2022/08/21 09:36:59;;;;;;;7.35;3.45;;;;;;;;;;5000428;28;20049;-82
2022/08/21 09:39:27;;;;;;;7.82;3.47;;;;;;;;;;4995461;28;20088;-81
2022/08/21 09:41:59;;;;;;;6.18;2.95;;;;;;;;;;4991777;28;20060;-85
2022/08/21 09:44:29;;;;;;;4.97;3.30;;;;;;;;;;4979033;28;20026;-82
2022/08/21 09:46:56;;;;;;;5.93;2.97;;;;;;;;;;4982273;28;20034;-84
2022/08/21 09:49:34;;;;;;;7.47;3.63;;;;;;;;;;4973871;28;20085;-81
2022/08/21 09:52:00;;;;;;;5.05;2.95;;;;;;;;;;4994313;28;20022;-80
2022/08/21 09:54:29;;;;;;;5.85;2.97;;;;;;;;;;4979643;28;20030;-81
2022/08/21 09:57:40;;;;;;;6.05;3.10;;;;;;;;;;4998389;28;20117;-78
2022/08/21 10:00:25;;;;;;;6.93;3.03;;;;;;;;;;4995635;28;20030;-81
2022/08/21 10:02:51;;;;;;;7.95;3.58;;;;;;;;;;4999585;28;20032;-80
2022/08/21 10:05:25;;;;;;;5.18;3.10;;;;;;;;;;4998012;28;20026;-85
2022/08/21 10:07:52;;;;;;;9.32;3.53;;;;;;;;;;4993083;28;20595;-79
2022/08/21 10:10:23;;;;;;;6.72;2.90;;;;;;;;;;4989105;28;20124;-79
2022/08/21 10:12:49;;;;;;;;;;;;;;;;;;4980530;28;20886;-79
2022/08/21 10:15:27;;;;;;;9.15;3.40;;;;;;;;;;4999025;28;19913;-83
2022/08/21 10:18:12;;;;;;;5.60;3.20;;;;;;;;;;4994348;28;20034;-79
2022/08/21 10:20:44;;;;;;;5.97;3.47;;;;;;;;;;4988106;28;20506;-78
2022/08/21 10:23:13;;;;;;;5.40;3.20;;;;;;;;;;4999863;28;20124;-78
2022/08/21 10:26:02;;;;;;;9.48;2.72;;;;;;;;;;4997216;28;20470;-78
2022/08/21 10:28:41;;;;;;;6.97;2.88;;;;;;;;;;4979681;28;20580;-78
2022/08/21 10:31:26;;;;;;;4.22;2.70;;;;;;;;;;4994326;28;20104;-79
2022/08/21 10:34:13;;;;;;;4.50;2.53;;;;;;;;;;4988422;28;20046;-80
2022/08/21 10:37:06;;;;;;;3.65;2.40;;;;;;;;;;4994179;28;20036;-79
2022/08/21 10:39:36;;;;;;;4.80;2.35;;;;;;;;;;4988873;28;20136;-79
2022/08/21 10:42:17;;;;;;;5.88;2.72;;;;;;;;;;4981126;28;20025;-79
2022/08/21 10:44:47;;;;;;;4.43;2.80;;;;;;;;;;4971213;28;20094;-79
2022/08/21 10:47:24;;;;;;;5.82;2.42;;;;;;;;;;4985756;28;20038;-78
2022/08/21 10:50:03;;;;;;;7.28;3.05;;;;;;;;;;4987453;28;20025;-79
2022/08/21 10:52:48;;;;;;;5.45;2.65;;;;;;;;;;4971553;28;20039;-79
2022/08/21 10:55:19;;;;;;;6.82;3.20;;;;;;;;;;4981455;28;20374;-78
2022/08/21 10:57:48;;;;;;;6.82;2.83;;;;;;;;;;4987084;28;20105;-79
2022/08/21 11:00:19;;;;;;;6.63;2.80;;;;;;;;;;4993321;28;20030;-78
2022/08/21 11:02:49;;;;;;;6.20;2.97;;;;;;;;;;4991115;28;20018;-80
2022/08/21 11:05:15;;;;;;;5.70;3.15;;;;;;;;;;5002331;28;20390;-79
2022/08/21 11:08:00;;;;;;;7.07;3.60;;;;;;;;;;5000616;28;20066;-79
2022/08/21 11:10:28;;;;;;;8.88;3.40;;;;;;;;;;4995900;28;20085;-81
2022/08/21 11:12:57;;;;;;;6.72;3.13;;;;;;;;;;4981892;28;20045;-79
2022/08/21 11:15:34;;;;;;;5.90;3.15;;;;;;;;;;4996363;28;20034;-78
2022/08/21 11:18:00;;;;;;;6.05;3.35;;;;;;;;;;4979669;28;20026;-76
2022/08/21 11:20:35;;;;;;;6.95;3.88;;;;;;;;;;4994806;28;20077;-75
2022/08/21 11:23:09;;;;;;;9.25;3.97;;;;;;;;;;4993679;28;20367;-75
2022/08/21 11:25:38;;;;;;;11.05;4.07;;;;;;;;;;4996839;28;20048;-75
2022/08/21 11:28:21;;;;;;;7.75;3.70;;;;;;;;;;4993359;28;20097;-76
2022/08/21 11:31:02;;;;;;;7.32;3.85;;;;;;;;;;4994560;28;20076;-76
2022/08/21 11:33:28;;;;;;;;;;;;;;;;;;4999123;28;20026;-75
2022/08/21 11:36:03;;;;;;;7.05;3.70;;;;;;;;;;4997229;28;19952;-74
2022/08/21 11:38:37;;;;;;;7.22;3.90;;;;;;;;;;4997561;28;20442;-76
2022/08/21 11:41:03;;;;;;;9.30;4.55;;;;;;;;;;4997516;28;20025;-76
2022/08/21 11:43:41;;;;;;;7.20;4.13;;;;;;;;;;4998121;28;20014;-76
2022/08/21 11:46:29;;;;;;;9.10;4.03;;;;;;;;;;4996603;28;20077;-76
2022/08/21 11:49:22;;;;;;;9.35;4.25;;;;;;;;;;4999950;28;20532;-76
2022/08/21 11:51:48;;;;;;;6.22;3.80;;;;;;;;;;4999232;28;20029;-76
2022/08/21 11:54:23;;;;;;;7.82;4.50;;;;;;;;;;4999919;28;20210;-76
2022/08/21 11:56:54;;;;;;;13.65;4.32;;;;;;;;;;4995343;28;20310;-75
2022/08/21 11:59:20;;;;;;;;;;;;;;;;;;4997651;28;20029;-76
2022/08/21 12:01:47;;;;;;;8.48;3.88;;;;;;;;;;4996245;28;20358;-75
2022/08/21 12:04:32;;;;;;;8.48;3.85;;;;;;;;;;4998418;28;20323;-75
2022/08/21 12:07:12;;;;;;;6.40;3.70;;;;;;;;;;4994874;28;20457;-76
2022/08/21 12:09:38;;;;;;;6.75;4.05;;;;;;;;;;4994098;28;20085;-75
2022/08/21 12:12:04;;;;;;;6.47;3.60;;;;;;;;;;4998539;28;20027;-75
2022/08/21 12:14:44;;;;;;;7.78;4.40;;;;;;;;;;4999843;28;20057;-76
2022/08/21 12:17:18;;;;;;;6.53;3.42;;;;;;;;;;4996075;28;20589;-76
2022/08/21 12:19:44;;;;;;;6.63;4.05;;;;;;;;;;4999717;28;20508;-76
2022/08/21 12:22:14;;;;;;;7.45;3.70;;;;;;;;;;4996510;28;20026;-76
2022/08/21 12:24:48;;;;;;;6.38;3.83;;;;;;;;;;4998371;28;20033;-76
2022/08/21 12:27:20;;;;;;;11.15;4.28;;;;;;;;;;4995926;28;20042;-76
2022/08/21 12:29:51;;;;;;;6.80;4.32;;;;;;;;;;4998229;28;20025;-75
2022/08/21 12:32:17;;;;;;;9.50;4.15;;;;;;;;;;4998357;28;20037;-76
2022/08/21 12:34:46;;;;;;;9.75;4.38;;;;;;;;;;4996765;28;20109;-76
2022/08/21 12:37:20;;;;;;;7.97;4.32;;;;;;;;;;4997490;28;20026;-76
2022/08/21 12:39:48;;;;;;;9.27;4.30;;;;;;;;;;4998536;28;20785;-76
2022/08/21 12:42:19;;;;;;;6.70;4.00;;;;;;;;;;4998678;28;20030;-76
2022/08/21 12:44:55;;;;;;;11.23;4.07;;;;;;;;;;4991641;28;20081;-76
2022/08/21 12:47:32;;;;;;;8.45;4.18;;;;;;;;;;4981489;28;20265;-76
2022/08/21 12:50:04;;;;;;;9.02;4.20;;;;;;;;;;4993917;28;20049;-76
2022/08/21 12:52:30;;;;;;;5.47;3.63;;;;;;;;;;4991683;28;20506;-76
2022/08/21 12:54:57;;;;;;;7.95;3.75;;;;;;;;;;4991614;28;20182;-76
2022/08/21 12:57:24;;;;;;;7.93;4.40;;;;;;;;;;4989872;28;20487;-76
2022/08/21 13:00:01;;;;;;;6.28;4.07;;;;;;;;;;4990898;28;20114;-76
2022/08/21 13:02:30;;;;;;;7.70;3.67;;;;;;;;;;4994461;28;20049;-76
2022/08/21 13:04:56;;;;;;;9.48;3.80;;;;;;;;;;4995058;28;20164;-75
2022/08/21 13:07:30;;;;;;;7.35;4.00;;;;;;;;;;4997726;28;20033;-76
2022/08/21 13:09:58;;;;;;;8.00;4.35;;;;;;;;;;4995055;28;20028;-76
2022/08/21 13:12:25;;;;;;;6.57;3.55;;;;;;;;;;4999004;28;20025;-75
2022/08/21 13:14:52;;;;;;;5.35;3.70;;;;;;;;;;5003022;28;20030;-76
2022/08/21 13:17:19;;;;;;;6.63;3.95;;;;;;;;;;5001256;28;20085;-76
2022/08/21 13:19:56;;;;;;;8.98;3.63;;;;;;;;;;4999545;28;20564;-75
2022/08/21 13:22:22;;;;;;;10.35;3.63;;;;;;;;;;4997193;28;20402;-76
2022/08/21 13:24:49;;;;;;;7.43;3.60;;;;;;;;;;4998620;28;20033;-76
2022/08/21 13:27:17;;;;;;;6.85;4.20;;;;;;;;;;4997990;28;20038;-76
2022/08/21 13:29:43;;;;;;;8.18;3.85;;;;;;;;;;5000183;28;20161;-76
2022/08/21 13:32:19;;;;;;;7.50;4.40;;;;;;;;;;4998100;28;20033;-76
2022/08/21 13:34:45;;;;;;;8.90;3.75;;;;;;;;;;4990390;28;20034;-76
2022/08/21 13:37:12;;;;;;;8.70;3.90;;;;;;;;;;4992783;28;20044;-76
2022/08/21 13:39:38;;;;;;;8.60;3.40;;;;;;;;;;4993507;28;20041;-76
2022/08/21 13:42:09;;;;;;;10.13;3.53;;;;;;;;;;4995566;28;20161;-76
2022/08/21 13:44:35;;;;;;;10.65;4.03;;;;;;;;;;4992938;28;20104;-76
2022/08/21 13:47:02;;;;;;;7.30;3.72;;;;;;;;;;4995631;28;20037;-76
2022/08/21 13:49:39;;;;;;;5.40;3.30;;;;;;;;;;4974671;28;20458;-76
2022/08/21 13:52:14;;;;;;;6.60;3.58;;;;;;;;;;4992964;28;20109;-76
2022/08/21 13:54:41;;;;;;;7.95;3.50;;;;;;;;;;4988537;28;20475;-76
2022/08/21 13:57:24;;;;;;;7.40;3.53;;;;;;;;;;4990041;28;20033;-76
2022/08/21 13:59:51;;;;;;;8.43;3.80;;;;;;;;;;4990169;28;20118;-76
2022/08/21 14:02:23;;;;;;;6.43;3.63;;;;;;;;;;4991528;28;20026;-75
2022/08/21 14:04:52;;;;;;;6.78;3.53;;;;;;;;;;4988800;28;20037;-75
2022/08/21 14:07:26;;;;;;;8.77;3.70;;;;;;;;;;4989398;28;20210;-75
2022/08/21 14:09:53;;;;;;;9.45;3.70;;;;;;;;;;4988871;28;20035;-75
2022/08/21 14:12:24;;;;;;;9.70;3.83;;;;;;;;;;4992301;28;20458;-75
2022/08/21 14:14:51;;;;;;;7.28;3.30;;;;;;;;;;4987227;28;20101;-75
2022/08/21 14:17:28;;;;;;;7.63;3.70;;;;;;;;;;4991745;28;20022;-75
2022/08/21 14:19:54;;;;;;;10.27;3.85;;;;;;;;;;4987391;28;20078;-75
2022/08/21 14:22:41;;;;;;;7.47;3.35;;;;;;;;;;4992909;28;20240;-75
2022/08/21 14:25:10;;;;;;;9.45;3.67;;;;;;;;;;4990074;28;20334;-75
2022/08/21 14:27:39;;;;;;;7.47;3.13;;;;;;;;;;4992200;28;20030;-75
2022/08/21 14:30:25;;;;;;;9.13;3.90;;;;;;;;;;4987005;28;20097;-75
2022/08/21 14:32:52;;;;;;;14.68;3.95;;;;;;;;;;4984237;28;20175;-75
2022/08/21 14:35:19;;;;;;;9.77;3.22;;;;;;;;;;4996739;28;20034;-75
2022/08/21 14:37:45;;;;;;;6.95;3.42;;;;;;;;;;4993444;28;20022;-75
2022/08/21 14:40:12;;;;;;;5.82;3.05;;;;;;;;;;4996908;28;20145;-76
2022/08/21 14:42:40;;;;;;;6.45;3.20;;;;;;;;;;4994260;28;20108;-75
2022/08/21 14:45:11;;;;;;;6.15;3.00;;;;;;;;;;4995560;28;20022;-75
2022/08/21 14:47:37;;;;;;;8.48;3.08;;;;;;;;;;4993294;28;20034;-75
2022/08/21 14:50:04;;;;;;;8.77;3.50;;;;;;;;;;4989552;28;20494;-76
2022/08/21 14:52:30;;;;;;;9.50;3.80;;;;;;;;;;4988537;28;20483;-75